Time;durP1;ratioP1;P1;durP2;ratioP2;P2;SDS_P1;SDS_P2;PMS_P1;PMS_P2;Temp;Humidity;BMP_temperature;BMP_pressure;BME280_temperature;BME280_humidity;BME280_pressure;Samples;Min_cycle;Max_cycle;Signal;HPM_P1;HPM_P2
2023/01/26 00:01:34;;;;;;;31.03;16.80;;;;;;;-1.20;100.00;96751.16;4990207;28;20030;-84
2023/01/26 00:04:02;;;;;;;31.77;16.40;;;;;;;-1.13;100.00;96751.69;4974449;28;20030;-84
2023/01/26 00:06:27;;;;;;;32.47;15.80;;;;;;;-1.16;100.00;96749.25;4976042;28;21012;-84
2023/01/26 00:08:58;;;;;;;34.43;15.20;;;;;;;-1.29;100.00;96741.28;4990914;28;20468;-84
2023/01/26 00:11:27;;;;;;;39.33;17.83;;;;;;;-1.29;100.00;96743.84;4965767;28;20069;-85
2023/01/26 00:13:57;;;;;;;32.57;16.63;;;;;;;-1.31;100.00;96740.53;4976885;28;20976;-83
2023/01/26 00:16:23;;;;;;;32.83;16.33;;;;;;;-1.32;100.00;96738.00;4965613;28;21028;-84
2023/01/26 00:18:49;;;;;;;36.63;16.80;;;;;;;-1.30;100.00;96739.63;4961891;28;20546;-84
2023/01/26 00:21:18;;;;;;;35.80;17.73;;;;;;;-1.22;100.00;96726.31;4965591;28;20465;-84
2023/01/26 00:23:44;;;;;;;31.10;15.10;;;;;;;-1.27;100.00;96725.72;4974347;28;20560;-84
2023/01/26 00:26:13;;;;;;;31.47;15.63;;;;;;;-1.29;100.00;96725.78;4958728;28;20581;-84
2023/01/26 00:28:42;;;;;;;34.77;16.17;;;;;;;-1.32;100.00;96722.53;4992239;28;20041;-84
2023/01/26 00:31:20;;;;;;;31.20;15.67;;;;;;;-1.32;100.00;96713.03;4988643;28;20429;-84
2023/01/26 00:33:46;;;;;;;32.07;14.80;;;;;;;-1.19;100.00;96708.13;4993677;28;20475;-84
2023/01/26 00:36:12;;;;;;;34.77;16.10;;;;;;;-1.33;100.00;96719.13;4971787;28;20458;-83
2023/01/26 00:38:40;;;;;;;33.50;15.80;;;;;;;-1.26;100.00;96707.59;4998329;28;20086;-84
2023/01/26 00:41:07;;;;;;;35.30;15.53;;;;;;;-1.28;100.00;96713.72;4976888;28;20561;-84
2023/01/26 00:43:33;;;;;;;32.43;15.27;;;;;;;-1.32;100.00;96710.47;4967559;28;20510;-83
2023/01/26 00:46:02;;;;;;;29.67;14.43;;;;;;;-1.22;100.00;96697.94;4972915;28;20470;-84
2023/01/26 00:48:35;;;;;;;37.10;15.17;;;;;;;-1.35;100.00;96702.88;4978472;28;20426;-84
2023/01/26 00:51:01;;;;;;;28.65;13.65;;;;;;;-1.42;100.00;96692.00;4957827;28;20513;-84
2023/01/26 00:53:26;;;;;;;28.97;13.70;;;;;;;-1.39;100.00;96696.19;4961511;28;20027;-84
2023/01/26 00:55:56;;;;;;;28.87;13.50;;;;;;;-1.36;100.00;96687.47;4970740;28;20466;-84
2023/01/26 00:58:22;;;;;;;29.00;13.87;;;;;;;-1.31;100.00;96686.34;4998464;28;20390;-84
2023/01/26 01:00:52;;;;;;;28.23;14.43;;;;;;;-1.42;100.00;96688.59;4984176;28;20487;-84
2023/01/26 01:03:28;;;;;;;33.47;14.90;;;;;;;-1.47;100.00;96694.00;4974292;28;20030;-84
2023/01/26 01:05:53;;;;;;;30.00;14.20;;;;;;;-1.46;100.00;96687.91;4969893;28;20510;-83
2023/01/26 01:08:19;;;;;;;31.63;14.77;;;;;;;-1.43;100.00;96684.34;4958497;28;20551;-84
2023/01/26 01:11:10;;;;;;;32.77;14.40;;;;;;;-1.39;100.00;96685.88;4973964;28;20042;-84
2023/01/26 01:13:37;;;;;;;29.77;14.47;;;;;;;-1.30;100.00;96676.84;4961707;28;20029;-83
2023/01/26 01:16:08;;;;;;;27.60;13.70;;;;;;;-1.40;100.00;96673.88;4956826;28;20556;-84
2023/01/26 01:18:35;;;;;;;30.60;15.57;;;;;;;-1.35;100.00;96669.31;4973216;28;21028;-84
2023/01/26 01:21:09;;;;;;;27.90;12.73;;;;;;;-1.54;100.00;96666.84;4958579;28;21089;-84
2023/01/26 01:23:35;;;;;;;24.80;13.27;;;;;;;-1.41;100.00;96672.19;4973136;28;20469;-84
2023/01/26 01:26:03;;;;;;;28.07;13.10;;;;;;;-1.53;100.00;96668.50;4956901;28;20548;-84
2023/01/26 01:28:29;;;;;;;24.87;11.80;;;;;;;-1.57;100.00;96658.41;4973449;28;20037;-84
2023/01/26 01:30:56;;;;;;;26.37;13.13;;;;;;;-1.47;100.00;96657.88;4958333;28;20469;-84
2023/01/26 01:33:23;;;;;;;24.37;12.80;;;;;;;-1.56;100.00;96658.31;4957438;28;21009;-83
2023/01/26 01:36:02;;;;;;;27.87;13.67;;;;;;;-1.57;100.00;96650.69;4954180;28;20461;-84
2023/01/26 01:38:29;;;;;;;29.13;13.10;;;;;;;-1.58;100.00;96648.97;4981763;28;20426;-84
2023/01/26 01:40:56;;;;;;;31.07;13.80;;;;;;;-1.56;100.00;96654.91;4961500;28;20485;-84
2023/01/26 01:43:23;;;;;;;31.13;15.67;;;;;;;-1.46;100.00;96648.38;4972885;28;20996;-84
2023/01/26 01:45:52;;;;;;;29.77;14.07;;;;;;;-1.47;100.00;96641.56;4970552;28;21056;-84
2023/01/26 01:48:38;;;;;;;32.17;13.17;;;;;;;-1.64;100.00;96634.66;4973560;28;20671;-84
2023/01/26 01:51:24;;;;;;;27.27;12.53;;;;;;;-1.54;100.00;96640.19;4959011;28;20461;-84
2023/01/26 01:53:51;;;;;;;25.97;13.23;;;;;;;-1.54;100.00;96641.03;4956959;28;20462;-84
2023/01/26 01:56:22;;;;;;;28.47;13.57;;;;;;;-1.56;100.00;96639.44;4979431;28;21047;-84
2023/01/26 01:58:54;;;;;;;26.13;13.10;;;;;;;-1.55;100.00;96641.09;4979743;28;20469;-84
2023/01/26 02:01:20;;;;;;;30.53;13.93;;;;;;;-1.51;100.00;96638.31;4985578;28;20469;-83
2023/01/26 02:03:51;;;;;;;33.37;13.53;;;;;;;-1.55;100.00;96630.78;4971747;28;20835;-84
2023/01/26 02:06:30;;;;;;;27.77;13.27;;;;;;;-1.51;100.00;96640.91;4974805;28;20033;-83
2023/01/26 02:09:00;;;;;;;29.73;13.60;;;;;;;-1.46;100.00;96638.06;4977555;28;20481;-83
2023/01/26 02:11:32;;;;;;;25.03;13.43;;;;;;;-1.50;100.00;96634.81;4983894;28;20515;-84
2023/01/26 02:14:03;;;;;;;29.63;14.57;;;;;;;-1.39;100.00;96629.13;4972013;28;20466;-84
2023/01/26 02:16:29;;;;;;;24.87;12.63;;;;;;;-1.55;100.00;96623.03;4965984;28;20473;-84
2023/01/26 02:18:56;;;;;;;22.20;10.40;;;;;;;-1.54;100.00;96620.41;4955654;28;20464;-84
2023/01/26 02:21:23;;;;;;;27.23;12.67;;;;;;;-1.60;100.00;96615.53;4969471;28;20050;-84
2023/01/26 02:24:08;;;;;;;30.80;14.43;;;;;;;-1.69;100.00;96606.50;4962122;28;20468;-84
2023/01/26 02:26:35;;;;;;;24.80;11.67;;;;;;;-1.60;100.00;96600.06;4970492;28;20567;-83
2023/01/26 02:29:05;;;;;;;29.60;14.07;;;;;;;-1.56;100.00;96596.44;4983556;28;20481;-84
2023/01/26 02:31:36;;;;;;;35.03;15.07;;;;;;;-1.56;100.00;96587.84;4956868;28;20473;-84
2023/01/26 02:34:02;;;;;;;30.10;14.17;;;;;;;-1.53;100.00;96590.28;4984674;28;20442;-83
2023/01/26 02:36:30;;;;;;;31.03;14.70;;;;;;;-1.44;100.00;96579.53;4972566;28;20469;-84
2023/01/26 02:39:16;;;;;;;28.63;14.03;;;;;;;-1.46;100.00;96576.16;4960797;28;20446;-84
2023/01/26 02:48:05;;;;;;;36.03;15.15;;;;;;;-1.50;100.00;96575.50;4988997;28;20473;-84
2023/01/26 02:50:31;;;;;;;34.73;15.57;;;;;;;-1.59;100.00;96580.28;4957627;28;20121;-84
2023/01/26 02:52:57;;;;;;;34.73;15.50;;;;;;;-1.68;100.00;96581.56;4956271;28;20492;-84
2023/01/26 02:55:25;;;;;;;38.17;16.33;;;;;;;-1.57;100.00;96581.03;4965689;28;20557;-83
2023/01/26 02:57:53;;;;;;;33.23;15.07;;;;;;;-1.58;100.00;96579.34;4979177;28;20477;-84
2023/01/26 03:00:26;;;;;;;32.93;14.80;;;;;;;-1.45;100.00;96573.50;4984372;28;20466;-84
2023/01/26 03:03:01;;;;;;;34.33;16.53;;;;;;;-1.53;100.00;96575.66;4959155;28;20576;-84
2023/01/26 03:05:34;;;;;;;34.33;14.20;;;;;;;-1.54;100.00;96570.53;4987543;28;20488;-83
2023/01/26 03:08:07;;;;;;;36.67;15.60;;;;;;;-1.50;100.00;96574.66;4973039;28;20487;-84
2023/01/26 03:10:40;;;;;;;32.07;14.60;;;;;;;-1.54;100.00;96573.13;4969707;28;20133;-84
2023/01/26 03:13:06;;;;;;;28.10;13.53;;;;;;;-1.66;100.00;96575.41;4989595;28;20449;-81
2023/01/26 03:15:51;;;;;;;32.53;15.13;;;;;;;-1.63;100.00;96579.59;4964641;28;20453;-81
2023/01/26 03:29:29;;;;;;;27.73;12.97;;;;;;;-1.57;100.00;96576.72;4986502;28;20489;-84
2023/01/26 03:32:00;;;;;;;27.43;12.77;;;;;;;-1.70;100.00;96573.91;4971613;28;21059;-84
2023/01/26 03:34:29;;;;;;;32.20;14.50;;;;;;;-1.68;100.00;96569.53;4957043;28;20466;-84
2023/01/26 03:37:03;;;;;;;32.20;13.47;;;;;;;-1.65;100.00;96578.81;4965629;28;20461;-84
2023/01/26 03:56:48;;;;;;;27.63;13.17;;;;;;;-1.70;100.00;96570.50;4995789;28;20480;-84
2023/01/26 03:59:36;;;;;;;29.27;12.83;;;;;;;-1.66;100.00;96572.00;4984085;28;20481;-84
2023/01/26 04:10:27;;;;;;;30.73;14.63;;;;;;;-1.56;100.00;96562.91;4998568;28;20489;-83
2023/01/26 04:21:32;;;;;;;28.47;13.37;;;;;;;-1.57;100.00;96552.69;4985893;28;20441;-82
2023/01/26 04:24:08;;;;;;;37.70;15.00;;;;;;;-1.57;100.00;96542.34;4972085;28;20516;-81
2023/01/26 04:26:36;;;;;;;25.40;14.10;;;;;;;-1.74;100.00;96538.88;4962651;28;21016;-82
2023/01/26 04:29:07;;;;;;;28.70;14.37;;;;;;;-1.75;100.00;96536.34;4991386;28;20469;-83
2023/01/26 04:32:02;;;;;;;24.10;12.37;;;;;;;-1.75;100.00;96539.75;4962899;28;20473;-82
2023/01/26 04:34:30;;;;;;;27.77;12.45;;;;;;;-1.77;100.00;96536.44;4984075;28;20461;-82
2023/01/26 04:36:57;;;;;;;26.93;11.80;;;;;;;-1.76;100.00;96539.84;4983182;28;20498;-82
2023/01/26 04:39:26;;;;;;;27.83;12.93;;;;;;;-1.71;100.00;96543.88;4981144;28;20461;-82
2023/01/26 04:41:56;;;;;;;25.07;10.90;;;;;;;-1.79;100.00;96543.41;4967727;28;20491;-82
2023/01/26 04:44:21;;;;;;;26.10;11.77;;;;;;;-1.85;100.00;96546.28;4975875;28;20879;-82
2023/01/26 04:46:47;;;;;;;21.97;10.00;;;;;;;-1.78;100.00;96545.06;4984329;28;20466;-82
2023/01/26 04:49:14;;;;;;;25.80;11.20;;;;;;;-1.75;100.00;96549.25;4959305;28;20470;-82
2023/01/26 04:51:41;;;;;;;22.07;11.37;;;;;;;-1.87;100.00;96540.41;4963242;28;21027;-82
2023/01/26 04:54:07;;;;;;;25.37;12.77;;;;;;;-1.76;100.00;96537.28;4961600;28;20096;-83
2023/01/26 04:56:36;;;;;;;23.80;12.00;;;;;;;-1.81;100.00;96537.53;4979930;28;20453;-83
2023/01/26 04:59:05;;;;;;;21.47;10.80;;;;;;;-1.93;100.00;96535.53;4972816;28;20802;-83
2023/01/26 05:01:32;;;;;;;22.17;10.77;;;;;;;-1.83;100.00;96535.91;4983144;28;20113;-83
2023/01/26 05:04:03;;;;;;;23.83;11.93;;;;;;;-1.65;100.00;96532.41;4954272;28;20473;-83
2023/01/26 05:06:31;;;;;;;20.80;10.93;;;;;;;-1.79;100.00;96532.28;4993513;28;20812;-83
2023/01/26 05:08:57;;;;;;;26.10;11.03;;;;;;;-1.81;100.00;96532.38;4953278;28;21020;-83
2023/01/26 05:11:25;;;;;;;22.70;10.77;;;;;;;-1.80;100.00;96523.72;4970181;28;21315;-82
2023/01/26 05:14:14;;;;;;;21.83;10.23;;;;;;;-1.66;100.00;96534.16;4961572;28;20472;-83
2023/01/26 05:17:08;;;;;;;21.27;10.80;;;;;;;-1.60;100.00;96532.19;4980795;28;20555;-83
2023/01/26 05:19:45;;;;;;;20.17;9.73;;;;;;;-1.61;100.00;96528.78;4984939;28;20560;-83
2023/01/26 05:22:34;;;;;;;22.47;11.70;;;;;;;-1.50;100.00;96528.25;4973557;28;20484;-82
2023/01/26 05:25:31;;;;;;;22.20;11.17;;;;;;;-1.46;100.00;96530.56;4947914;28;20445;-83
2023/01/26 05:28:04;;;;;;;21.43;10.57;;;;;;;-1.53;100.00;96533.56;4974696;28;20841;-83
2023/01/26 05:30:42;;;;;;;25.90;15.20;;;;;;;-1.61;100.00;96536.53;4971035;28;20536;-83
2023/01/26 05:33:10;;;;;;;33.10;19.00;;;;;;;-1.60;100.00;96532.19;4967423;28;20474;-82
2023/01/26 05:35:35;;;;;;;23.63;11.27;;;;;;;-1.58;100.00;96536.34;4960070;28;20465;-82
2023/01/26 05:38:13;;;;;;;23.00;11.93;;;;;;;-1.66;100.00;96529.00;4974946;28;20839;-82
2023/01/26 05:40:45;;;;;;;23.93;11.57;;;;;;;-1.69;100.00;96533.47;4972902;28;20478;-82
2023/01/26 05:43:12;;;;;;;19.67;10.70;;;;;;;-1.76;100.00;96532.94;4996848;28;21123;-82
2023/01/26 05:45:57;;;;;;;17.60;9.67;;;;;;;-1.74;100.00;96527.75;4972756;28;21188;-82
2023/01/26 05:48:27;;;;;;;19.40;9.87;;;;;;;-1.84;100.00;96540.25;4975290;28;20575;-82
2023/01/26 05:50:56;;;;;;;19.47;9.53;;;;;;;-1.66;100.00;96539.31;4955975;28;20110;-82
2023/01/26 05:53:21;;;;;;;20.10;10.67;;;;;;;-1.74;100.00;96540.63;4951559;28;20529;-82
2023/01/26 05:55:47;;;;;;;20.30;10.33;;;;;;;-1.77;100.00;96538.19;4971457;28;20523;-82
2023/01/26 05:58:18;;;;;;;23.00;11.50;;;;;;;-1.84;100.00;96545.41;4989648;28;21008;-82
2023/01/26 06:00:44;;;;;;;19.80;9.93;;;;;;;-1.91;100.00;96538.88;4957609;28;20033;-82
2023/01/26 06:03:22;;;;;;;22.13;10.77;;;;;;;-1.95;100.00;96539.91;4972395;28;20470;-82
2023/01/26 06:05:53;;;;;;;20.50;9.37;;;;;;;-1.87;100.00;96539.56;4973711;28;20058;-82
2023/01/26 06:08:31;;;;;;;19.97;9.23;;;;;;;-1.77;100.00;96545.94;4973040;28;20488;-82
2023/01/26 06:11:20;;;;;;;20.63;10.07;;;;;;;-1.79;100.00;96543.41;4986173;28;20520;-85
2023/01/26 06:14:01;;;;;;;18.70;9.53;;;;;;;-1.92;100.00;96543.19;4986402;28;20469;-84
2023/01/26 06:16:28;;;;;;;23.13;10.33;;;;;;;-1.96;100.00;96553.72;4959124;28;20456;-83
2023/01/26 06:18:54;;;;;;;20.73;8.67;;;;;;;-1.92;100.00;96557.81;4959220;28;20472;-84
2023/01/26 06:21:20;;;;;;;21.60;10.57;;;;;;;-1.86;100.00;96556.69;4976686;28;20454;-83
2023/01/26 06:23:46;;;;;;;20.60;9.53;;;;;;;-1.87;100.00;96553.28;4973062;28;20034;-82
2023/01/26 06:26:12;;;;;;;22.37;9.37;;;;;;;-1.90;100.00;96556.84;4968407;28;20493;-82
2023/01/26 06:28:38;;;;;;;19.90;10.00;;;;;;;-1.89;100.00;96557.66;4961848;28;20564;-83
2023/01/26 06:31:06;;;;;;;22.80;10.43;;;;;;;-1.91;100.00;96554.34;4976785;28;20030;-83
2023/01/26 06:33:35;;;;;;;20.07;10.43;;;;;;;-1.84;100.00;96554.88;4956716;28;20485;-83
2023/01/26 06:36:05;;;;;;;19.77;9.60;;;;;;;-1.84;100.00;96552.31;4956237;28;21008;-82
2023/01/26 06:38:31;;;;;;;20.57;10.63;;;;;;;-1.80;100.00;96559.81;4972780;28;20466;-83
2023/01/26 06:41:01;;;;;;;20.87;10.83;;;;;;;-1.84;100.00;96555.72;4971884;28;20464;-82
2023/01/26 06:43:37;;;;;;;18.80;9.80;;;;;;;-1.80;100.00;96558.97;4962434;28;20540;-82
2023/01/26 06:46:04;;;;;;;19.30;9.17;;;;;;;-1.87;100.00;96549.88;4972389;28;20492;-83
2023/01/26 06:48:33;;;;;;;18.27;8.97;;;;;;;-1.77;100.00;96551.09;4959749;28;20470;-83
2023/01/26 06:51:05;;;;;;;19.03;9.07;;;;;;;-1.76;100.00;96547.59;4971829;28;20469;-81
2023/01/26 06:53:41;;;;;;;21.40;11.80;;;;;;;-1.78;100.00;96545.06;4979636;28;20480;-81
2023/01/26 06:56:27;;;;;;;20.40;10.80;;;;;;;-1.85;100.00;96543.72;4980213;28;20474;-81
2023/01/26 06:59:15;;;;;;;18.63;9.07;;;;;;;-1.80;100.00;96546.09;4967099;28;20465;-81
2023/01/26 07:02:15;;;;;;;21.27;10.67;;;;;;;-1.85;100.00;96550.63;4959596;28;20457;-81
2023/01/26 07:04:41;;;;;;;19.97;10.13;;;;;;;-1.93;100.00;96540.69;4973574;28;21116;-81
2023/01/26 07:07:07;;;;;;;18.20;9.57;;;;;;;-1.90;100.00;96543.94;4957751;28;20493;-81
2023/01/26 07:09:32;;;;;;;18.93;9.73;;;;;;;-1.80;100.00;96546.91;4958121;28;20035;-81
2023/01/26 07:11:59;;;;;;;21.13;10.40;;;;;;;-1.79;100.00;96548.56;4971181;28;20532;-80
2023/01/26 07:14:25;;;;;;;21.00;11.00;;;;;;;-1.82;100.00;96548.72;4988446;28;20486;-81
2023/01/26 07:16:50;;;;;;;341.90;141.63;;;;;;;-0.86;100.00;96542.09;4970954;28;20519;-80
2023/01/26 07:19:16;;;;;;;198.53;75.70;;;;;;;0.04;100.00;96547.47;4954043;28;20026;-83
2023/01/26 07:21:42;;;;;;;20.57;10.83;;;;;;;-1.18;100.00;96544.63;4970302;28;20877;-80
2023/01/26 07:24:08;;;;;;;20.97;9.27;;;;;;;-1.23;100.00;96552.63;4955209;28;20034;-81
2023/01/26 07:26:34;;;;;;;20.57;9.87;;;;;;;-1.34;100.00;96554.91;4933650;28;20050;-82
2023/01/26 07:29:00;;;;;;;21.77;11.93;;;;;;;-1.46;100.00;96551.19;4809573;28;20453;-81
2023/01/26 07:31:25;;;;;;;23.30;10.37;;;;;;;-1.49;100.00;96540.22;4776864;28;20030;-80
2023/01/26 07:33:51;;;;;;;20.80;10.47;;;;;;;-1.52;100.00;96537.78;4815731;28;21210;-82
2023/01/26 07:36:17;;;;;;;30.70;13.07;;;;;;;-1.36;100.00;96546.41;4809898;28;20100;-82
2023/01/26 07:38:43;;;;;;;17.67;8.67;;;;;;;-1.60;100.00;96540.75;4796780;28;20038;-81
2023/01/26 07:41:11;;;;;;;549.30;74.00;;;;;;;-0.42;100.00;96544.03;4775683;28;20057;-83
2023/01/26 07:43:38;;;;;;;58.20;13.53;;;;;;;-1.11;100.00;96532.22;4810292;28;20026;-81
2023/01/26 07:46:11;;;;;;;33.53;10.00;;;;;;;-1.17;100.00;96533.41;4813207;28;20468;-81
2023/01/26 07:48:45;;;;;;;13.00;7.10;;;;;;;-1.30;100.00;96546.09;4846091;28;20887;-86
2023/01/26 07:51:10;;;;;;;191.90;29.40;;;;;;;-0.61;100.00;96537.28;4840369;28;20500;-86
2023/01/26 07:53:38;;;;;;;17.33;8.17;;;;;;;-0.14;100.00;96532.97;4877602;28;20624;-86
2023/01/26 07:56:11;;;;;;;19.77;7.47;;;;;;;0.36;100.00;96527.50;4897610;28;20672;-86
2023/01/26 07:58:37;;;;;;;14.53;7.87;;;;;;;0.46;100.00;96512.28;4875704;28;21059;-86
2023/01/26 08:01:08;;;;;;;21.53;8.43;;;;;;;0.43;100.00;96509.84;4880143;28;21903;-85
2023/01/26 08:03:34;;;;;;;23.10;9.40;;;;;;;0.33;100.00;96500.97;4883578;28;20489;-85
2023/01/26 08:06:00;;;;;;;16.30;7.33;;;;;;;-0.15;100.00;96501.13;4861597;28;20461;-85
2023/01/26 08:08:26;;;;;;;13.10;6.77;;;;;;;0.41;100.00;96494.44;4899630;28;20054;-85
2023/01/26 08:10:55;;;;;;;20.80;8.50;;;;;;;0.37;100.00;96492.97;4914074;28;20490;-86
2023/01/26 08:13:21;;;;;;;35.30;10.37;;;;;;;0.12;100.00;96495.31;4907744;28;20038;-86
2023/01/26 08:15:46;;;;;;;20.50;7.27;;;;;;;0.09;100.00;96498.91;4892511;28;20125;-84
2023/01/26 08:18:12;;;;;;;18.17;8.83;;;;;;;0.18;100.00;96495.78;4911871;28;20046;-85
2023/01/26 08:20:38;;;;;;;18.77;8.47;;;;;;;0.33;100.00;96490.63;4926786;28;20049;-86
2023/01/26 08:23:03;;;;;;;17.67;10.07;;;;;;;-0.08;100.00;96499.88;4898188;28;20148;-86
2023/01/26 08:25:32;;;;;;;15.90;8.23;;;;;;;0.18;100.00;96490.63;4913709;28;20042;-87
2023/01/26 08:27:58;;;;;;;14.30;7.80;;;;;;;-0.46;100.00;96491.69;4951970;28;20038;-87
2023/01/26 08:30:24;;;;;;;16.63;9.07;;;;;;;-0.40;100.00;96500.84;4949712;28;20034;-86
2023/01/26 08:32:51;;;;;;;15.10;7.83;;;;;;;-0.69;100.00;96502.47;4945456;28;20038;-86
2023/01/26 08:35:16;;;;;;;15.60;8.63;;;;;;;-0.06;100.00;96499.78;4946019;28;20391;-86
2023/01/26 08:37:42;;;;;;;16.20;8.87;;;;;;;0.10;100.00;96494.56;4980132;28;20041;-86
2023/01/26 08:40:09;;;;;;;15.20;8.47;;;;;;;0.54;100.00;96493.69;4963829;28;20034;-87
2023/01/26 08:42:35;;;;;;;18.40;8.93;;;;;;;-0.02;100.00;96496.09;4894051;28;20963;-86
2023/01/26 08:45:01;;;;;;;18.80;8.77;;;;;;;0.35;100.00;96488.78;4877218;28;20073;-86
2023/01/26 08:47:27;;;;;;;22.43;10.37;;;;;;;0.08;100.00;96492.06;4884891;28;20034;-86
2023/01/26 08:49:53;;;;;;;19.30;9.63;;;;;;;0.23;100.00;96493.78;4883252;28;20053;-87
2023/01/26 08:52:20;;;;;;;16.27;8.70;;;;;;;-0.05;100.00;96491.09;4870527;28;20120;-86
2023/01/26 08:54:46;;;;;;;14.67;7.47;;;;;;;-0.55;100.00;96492.19;4871611;28;20177;-85
2023/01/26 08:57:11;;;;;;;16.47;8.93;;;;;;;-0.24;100.00;96492.13;4908199;28;20033;-87
2023/01/26 08:59:37;;;;;;;15.37;8.37;;;;;;;-0.23;100.00;96495.59;4977140;28;20206;-87
2023/01/26 09:02:04;;;;;;;18.20;8.37;;;;;;;-0.12;100.00;96502.72;4958760;28;20042;-87
2023/01/26 09:04:29;;;;;;;16.70;8.83;;;;;;;0.14;100.00;96496.88;4958756;28;20441;-87
2023/01/26 09:06:55;;;;;;;17.23;9.03;;;;;;;-0.06;100.00;96489.44;4977879;28;20030;-87
2023/01/26 09:09:22;;;;;;;16.57;7.90;;;;;;;-0.02;100.00;96476.25;4991745;28;20061;-86
2023/01/26 09:11:48;;;;;;;19.20;8.73;;;;;;;0.31;100.00;96474.38;4980237;28;20505;-87
2023/01/26 09:14:14;;;;;;;14.43;6.97;;;;;;;0.54;100.00;96479.03;4974827;28;20026;-87
2023/01/26 09:16:39;;;;;;;15.07;8.30;;;;;;;0.37;100.00;96469.69;4963244;28;20030;-87
2023/01/26 09:19:05;;;;;;;16.70;8.53;;;;;;;0.04;100.00;96475.06;4959235;28;20015;-87
2023/01/26 09:21:31;;;;;;;16.93;9.27;;;;;;;-0.01;100.00;96477.06;4996453;28;20450;-87
2023/01/26 09:23:56;;;;;;;15.97;9.00;;;;;;;0.03;100.00;96478.56;4965419;28;20045;-87
2023/01/26 09:26:22;;;;;;;16.93;6.87;;;;;;;0.40;100.00;96479.84;4972273;28;20113;-87
2023/01/26 09:28:52;;;;;;;12.33;4.90;;;;;;;0.36;100.00;96473.16;4976667;28;20039;-88
2023/01/26 09:31:18;;;;;;;11.30;4.70;;;;;;;0.42;100.00;96469.41;4963371;28;20470;-87
2023/01/26 09:33:43;;;;;;;8.73;4.43;;;;;;;0.18;100.00;96472.50;4977838;28;20049;-87
2023/01/26 09:36:10;;;;;;;9.57;5.00;;;;;;;0.67;100.00;96474.78;4961906;28;20129;-88
2023/01/26 09:38:37;;;;;;;10.57;5.90;;;;;;;-0.01;100.00;96466.72;4989071;28;20122;-87
2023/01/26 09:41:06;;;;;;;36.80;8.30;;;;;;;0.62;100.00;96465.63;4982800;28;20121;-88
2023/01/26 09:44:03;;;;;;;61.00;37.13;;;;;;;0.96;100.00;96466.16;4963109;28;20553;-87
2023/01/26 09:46:41;;;;;;;55.00;33.30;;;;;;;0.25;100.00;96474.75;4974744;28;20066;-87
2023/01/26 09:49:20;;;;;;;16.03;7.60;;;;;;;0.18;100.00;96480.25;4997525;28;20561;-89
2023/01/26 09:52:19;;;;;;;12.50;6.37;;;;;;;0.03;100.00;96478.56;4980342;28;20039;-90
2023/01/26 09:54:47;;;;;;;12.67;5.53;;;;;;;0.14;100.00;96473.63;4976195;28;20026;-89
2023/01/26 09:57:36;;;;;;;13.40;8.17;;;;;;;-0.17;100.00;96486.63;4974303;28;20034;-88
2023/01/26 10:00:11;;;;;;;14.90;8.17;;;;;;;-0.05;100.00;96478.19;4989133;28;20038;-89
2023/01/26 10:03:04;;;;;;;17.07;8.27;;;;;;;-0.35;100.00;96489.34;4991839;28;20030;-89
2023/01/26 10:05:40;;;;;;;9.55;5.20;;;;;;;-0.46;100.00;96496.03;4991397;28;20052;-89
2023/01/26 10:08:15;;;;;;;15.17;6.30;;;;;;;-0.54;100.00;96499.88;5010222;28;20045;-89
2023/01/26 10:11:00;;;;;;;17.10;8.20;;;;;;;-0.62;100.00;96506.38;4970612;28;20509;-89
2023/01/26 10:13:33;;;;;;;110.23;25.87;;;;;;;0.47;100.00;96498.44;4986983;28;20113;-88
2023/01/26 10:16:10;;;;;;;24.95;8.45;;;;;;;-0.19;100.00;96506.56;4985527;28;20820;-89
2023/01/26 10:19:09;;;;;;;19.33;8.00;;;;;;;-0.17;100.00;96515.06;4970119;28;20070;-89
2023/01/26 10:21:48;;;;;;;12.97;6.20;;;;;;;-0.37;100.00;96508.41;4978486;28;20072;-89
2023/01/26 10:24:21;;;;;;;17.43;6.93;;;;;;;-0.67;100.00;96508.34;4977339;28;20569;-89
2023/01/26 10:26:55;;;;;;;23.70;7.53;;;;;;;-0.59;100.00;96506.22;4995953;28;20459;-89
2023/01/26 10:29:24;;;;;;;16.67;7.27;;;;;;;-0.65;100.00;96507.38;4874732;28;20040;-90
2023/01/26 10:31:51;;;;;;;12.40;6.60;;;;;;;-0.54;100.00;96507.63;4844784;28;20088;-90
2023/01/26 10:34:22;;;;;;;15.50;7.57;;;;;;;-0.54;100.00;96505.06;4840887;28;20465;-89
2023/01/26 10:36:49;;;;;;;14.17;6.37;;;;;;;-0.55;100.00;96511.09;4810013;28;20481;-90
2023/01/26 10:39:17;;;;;;;21.67;10.53;;;;;;;-0.65;100.00;96511.72;4909307;28;20981;-89
2023/01/26 10:42:03;;;;;;;18.50;8.40;;;;;;;-0.60;100.00;96509.72;4909430;28;20510;-90
2023/01/26 10:44:34;;;;;;;17.50;8.80;;;;;;;-0.83;100.00;96514.38;4850597;28;20469;-89
2023/01/26 10:47:13;;;;;;;16.07;6.47;;;;;;;-0.81;100.00;96511.69;4850447;28;20480;-89
2023/01/26 10:49:39;;;;;;;14.33;8.20;;;;;;;-1.01;100.00;96505.03;4856237;28;20569;-89
2023/01/26 10:52:17;;;;;;;18.97;10.07;;;;;;;-0.82;100.00;96508.28;4868108;28;20449;-89
2023/01/26 10:54:45;;;;;;;20.37;9.63;;;;;;;-0.88;100.00;96508.59;4872036;28;20480;-90
2023/01/26 10:57:17;;;;;;;17.57;8.17;;;;;;;-0.89;100.00;96509.53;4871276;28;20532;-89
2023/01/26 10:59:55;;;;;;;18.45;7.97;;;;;;;-0.91;100.00;96508.78;4847647;28;20461;-89
2023/01/26 11:02:26;;;;;;;14.30;7.63;;;;;;;-0.89;100.00;96509.53;4835726;28;20034;-89
2023/01/26 11:05:10;;;;;;;24.13;8.17;;;;;;;-0.63;100.00;96509.88;4871509;28;20465;-89
2023/01/26 11:07:45;;;;;;;13.90;7.53;;;;;;;-0.95;100.00;96510.69;4858170;28;20568;-89
2023/01/26 11:10:19;;;;;;;27.13;14.70;;;;;;;-0.95;100.00;96505.53;4889572;28;20366;-89
2023/01/26 11:12:45;;;;;;;23.57;10.77;;;;;;;-0.99;100.00;96503.19;4984835;28;20464;-89
2023/01/26 11:15:22;;;;;;;23.73;11.90;;;;;;;-1.02;100.00;96503.34;5005833;28;20433;-89
2023/01/26 11:18:04;;;;;;;16.67;7.93;;;;;;;-1.07;100.00;96502.78;4977131;28;20125;-89
2023/01/26 11:20:44;;;;;;;14.73;7.27;;;;;;;-1.03;100.00;96497.38;4955849;28;20482;-88
2023/01/26 11:23:45;;;;;;;15.30;7.50;;;;;;;-0.94;100.00;96490.88;4999182;28;20478;-90
2023/01/26 11:26:29;;;;;;;22.07;8.70;;;;;;;-1.06;100.00;96487.22;4994537;28;20536;-90
2023/01/26 11:29:16;;;;;;;19.40;9.13;;;;;;;-1.04;100.00;96489.69;5004062;28;20458;-89
2023/01/26 11:32:01;;;;;;;24.83;13.20;;;;;;;-1.03;100.00;96479.31;5007806;28;20489;-90
2023/01/26 11:34:37;;;;;;;20.33;11.30;;;;;;;-0.89;100.00;96483.72;4990493;28;20481;-90
2023/01/26 11:37:12;;;;;;;14.53;7.53;;;;;;;-0.75;100.00;96481.22;4965735;28;20488;-90
2023/01/26 11:40:06;;;;;;;16.17;7.37;;;;;;;-0.85;100.00;96481.81;4997382;28;20469;-82
2023/01/26 11:42:44;;;;;;;15.57;6.72;;;;;;;-1.03;100.00;96465.56;4965392;28;22572;-82
2023/01/26 11:45:28;;;;;;;12.70;5.80;;;;;;;-0.92;100.00;96463.22;4989461;28;20042;-83
2023/01/26 11:48:22;;;;;;;10.70;5.80;;;;;;;-0.98;100.00;96461.81;4977943;28;20454;-83
2023/01/26 11:51:14;;;;;;;11.60;4.97;;;;;;;-0.98;100.00;96460.97;4974829;28;20484;-83
2023/01/26 11:54:02;;;;;;;11.80;5.87;;;;;;;-1.03;100.00;96455.25;4961983;28;20117;-83
2023/01/26 11:59:52;;;;;;;13.00;6.20;;;;;;;-1.08;100.00;96462.38;4984298;28;20469;-82
2023/01/26 12:02:30;;;;;;;319.03;38.83;;;;;;;1.72;100.00;96442.34;4969811;28;20121;-82
2023/01/26 12:05:32;;;;;;;382.50;43.53;;;;;;;3.30;100.00;96429.78;4989748;28;20453;-80
2023/01/26 12:08:39;;;;;;;23.17;6.63;;;;;;;1.49;100.00;96412.72;4966987;28;20606;-83
2023/01/26 12:11:24;;;;;;;15.23;7.17;;;;;;;0.91;100.00;96412.06;4977289;28;20054;-83
2023/01/26 12:14:18;;;;;;;34.97;11.70;;;;;;;0.41;100.00;96408.25;4990221;28;20034;-84
2023/01/26 12:17:04;;;;;;;25.03;10.33;;;;;;;-0.11;100.00;96417.31;4990007;28;20053;-85
2023/01/26 12:19:48;;;;;;;33.47;10.17;;;;;;;-0.09;100.00;96412.06;4985909;28;20125;-85
2023/01/26 12:22:19;;;;;;;148.00;24.67;;;;;;;0.37;100.00;96404.16;4971605;28;20041;-83
2023/01/26 12:24:51;;;;;;;137.30;22.93;;;;;;;1.32;100.00;96408.63;4960359;28;20081;-82
2023/01/26 12:27:39;;;;;;;68.87;14.67;;;;;;;1.98;100.00;96396.50;4992684;28;20549;-83
2023/01/26 12:30:51;;;;;;;26.43;9.90;;;;;;;1.61;100.00;96394.63;4994665;28;20042;-81
2023/01/26 12:33:17;;;;;;;57.30;12.53;;;;;;;1.32;100.00;96378.34;4957899;28;20038;-84